^^
Station Historical Data
Daily Summary for May 10, 2017 Units:  English    Metric   Both
« Previous Day
Next Day »
Daily Weekly Monthly Yearly Custom
  High: Low: Average:
Temperature: 60.9 °F 43.9 °F 52.1 °F
Dew Point: 39.9 °F 35.7 °F 37.6 °F
Humidity: 79% 42% 59%
Wind Speed: 6.0mph 0.0mph 1.2mph
Wind Gust: 12.0mph - -
Wind- - West
Pressure: 30.08 in 30.01 in -
Precipitation: 0.00 in    
Historical Graphs
 
 
Tabular Data for May 10, 2017
Time Temperature Dew Point Pressure Wind Wind Speed Wind Gust Humidity Rainfall Rate (Hourly) Conditions
00:00 46.3 °F 39.8 °F 30.02 in Calm   1.0 mph 78% 0.00 in CLR
00:15 46.2 °F 39.7 °F 30.02 in Calm   1.0 mph 78% 0.00 in SCT
00:30 46.4 °F 39.6 °F 30.02 in Calm   1.0 mph 77% 0.00 in SCT
00:45 46.2 °F 39.7 °F 30.02 in Calm     78% 0.00 in SCT
01:00 46.1 °F 39.9 °F 30.01 in Calm     79% 0.00 in SCT
02:15 44.7 °F 37.3 °F 30.02 in Calm   1.0 mph 75% 0.00 in SCT
02:30 44.6 °F 37.5 °F 30.02 in Calm   1.0 mph 76% 0.00 in SCT
02:45 45.1 °F 37.6 °F 30.02 in Calm     75% 0.00 in SCT
03:00 45.2 °F 37.4 °F 30.01 in Calm   1.0 mph 74% 0.00 in SCT
03:15 44.9 °F 37.5 °F 30.01 in Calm     75% 0.00 in SCT
03:29 44.6 °F 37.5 °F 30.02 in Calm     76% 0.00 in
03:59 44.2 °F 37.4 °F 30.02 in Calm     77% 0.00 in
04:29 44.3 °F 37.5 °F 30.01 in Calm     77% 0.00 in
04:59 44.3 °F 36.5 °F 30.01 in Calm   2.0 mph 74% 0.00 in
05:29 44.7 °F 36.2 °F 30.01 in Calm     72% 0.00 in
05:45 44.3 °F 36.5 °F 30.02 in Calm     74% 0.00 in SCT
06:00 43.9 °F 36.8 °F 30.03 in Calm   1.0 mph 76% 0.00 in SCT
06:15 44.7 °F 36.5 °F 30.03 in Calm   3.0 mph 73% 0.00 in BKN
06:30 45.1 °F 35.9 °F 30.04 in NNW 1.0 mph 3.0 mph 70% 0.00 in BKN
06:45 45.5 °F 36.3 °F 30.04 in Calm   2.0 mph 70% 0.00 in BKN
07:00 45.9 °F 36.3 °F 30.04 in Calm   1.0 mph 69% 0.00 in BKN
07:15 46.3 °F 35.9 °F 30.04 in North 1.0 mph 4.0 mph 67% 0.00 in BKN
07:30 46.7 °F 36.7 °F 30.05 in Calm   2.0 mph 68% 0.00 in BKN
07:45 47.1 °F 36.7 °F 30.05 in Calm   4.0 mph 67% 0.00 in BKN
08:00 47.6 °F 37.5 °F 30.05 in NW 1.0 mph 3.0 mph 68% 0.00 in BKN
08:15 47.8 °F 37.7 °F 30.05 in Calm   3.0 mph 68% 0.00 in BKN
08:30 48.4 °F 38.0 °F 30.05 in Calm   3.0 mph 67% 0.00 in BKN
08:45 48.9 °F 38.8 °F 30.06 in WNW 1.0 mph 4.0 mph 68% 0.00 in BKN
09:00 49.2 °F 39.1 °F 30.06 in WNW 1.0 mph 5.0 mph 68% 0.00 in BKN
09:15 49.5 °F 39.4 °F 30.06 in Calm   5.0 mph 68% 0.00 in BKN
09:30 50.3 °F 38.6 °F 30.06 in NW 1.0 mph 5.0 mph 64% 0.00 in BKN
09:45 50.5 °F 38.0 °F 30.06 in NW 1.0 mph 6.0 mph 62% 0.00 in BKN
10:00 51.2 °F 37.8 °F 30.05 in WNW 2.0 mph 4.0 mph 60% 0.00 in BKN
10:15 50.9 °F 36.6 °F 30.05 in North 2.0 mph 6.0 mph 58% 0.00 in BKN
10:30 50.9 °F 37.5 °F 30.05 in WNW 1.0 mph 4.0 mph 60% 0.00 in BKN
10:45 52.1 °F 37.8 °F 30.05 in North 2.0 mph 9.0 mph 58% 0.00 in BKN
11:00 52.2 °F 37.4 °F 30.04 in ENE 2.0 mph 5.0 mph 57% 0.00 in BKN
11:15 53.9 °F 37.6 °F 30.04 in WSW 2.0 mph 7.0 mph 54% 0.00 in BKN
11:30 55.1 °F 38.7 °F 30.04 in WSW 1.0 mph 9.0 mph 54% 0.00 in BKN
11:45 55.2 °F 38.4 °F 30.04 in NNW 5.0 mph 8.0 mph 53% 0.00 in BKN
12:00 55.5 °F 38.1 °F 30.03 in WNW 3.0 mph 8.0 mph 52% 0.00 in BKN
12:15 56.1 °F 37.7 °F 30.03 in North 2.0 mph 6.0 mph 50% 0.00 in SCT
12:30 56.3 °F 37.9 °F 30.02 in NNW 1.0 mph 8.0 mph 50% 0.00 in SCT
12:45 57.4 °F 37.9 °F 30.02 in NNE 3.0 mph 7.0 mph 48% 0.00 in SCT
13:00 57.1 °F 37.6 °F 30.02 in NW 5.0 mph 8.0 mph 48% 0.00 in SCT
13:15 57.1 °F 37.0 °F 30.02 in NNW 3.0 mph 9.0 mph 47% 0.00 in BKN
13:30 58.0 °F 38.4 °F 30.02 in NW 2.0 mph 10.0 mph 48% 0.00 in BKN
13:45 59.0 °F 38.7 °F 30.02 in NNW 3.0 mph 9.0 mph 47% 0.00 in BKN
14:00 58.5 °F 37.8 °F 30.02 in NW 3.0 mph 9.0 mph 46% 0.00 in BKN
14:15 58.8 °F 38.1 °F 30.02 in NNW 2.0 mph 9.0 mph 46% 0.00 in SCT
14:30 59.7 °F 37.7 °F 30.02 in NE 1.0 mph 8.0 mph 44% 0.00 in SCT
14:45 59.9 °F 39.0 °F 30.02 in NW 2.0 mph 8.0 mph 46% 0.00 in SCT
15:00 59.2 °F 37.8 °F 30.01 in NNW 2.0 mph 10.0 mph 45% 0.00 in SCT
15:15 59.5 °F 37.5 °F 30.01 in Calm   10.0 mph 44% 0.00 in SCT
15:30 60.5 °F 37.3 °F 30.01 in North 5.0 mph 9.0 mph 42% 0.00 in SCT
15:45 60.7 °F 37.5 °F 30.01 in NW 6.0 mph 12.0 mph 42% 0.00 in SCT
16:00 59.8 °F 37.2 °F 30.01 in NNW 5.0 mph 9.0 mph 43% 0.00 in SCT
16:15 59.7 °F 37.8 °F 30.01 in North 1.0 mph 12.0 mph 44% 0.00 in SCT
16:30 59.7 °F 37.7 °F 30.02 in NNW 2.0 mph 12.0 mph 44% 0.00 in SCT
16:45 60.6 °F 38.0 °F 30.02 in NNW 5.0 mph 10.0 mph 43% 0.00 in SCT
17:00 59.6 °F 37.1 °F 30.02 in NNW 5.0 mph 10.0 mph 43% 0.00 in SCT
17:15 59.6 °F 37.7 °F 30.01 in North 3.0 mph 8.0 mph 44% 0.00 in SCT
17:30 60.2 °F 38.2 °F 30.01 in NNW 1.0 mph 5.0 mph 44% 0.00 in SCT
17:45 60.2 °F 38.2 °F 30.01 in NNW 2.0 mph 5.0 mph 44% 0.00 in SCT
18:00 60.9 °F 38.8 °F 30.01 in WNW 1.0 mph 6.0 mph 44% 0.00 in SCT
18:15 60.5 °F 37.9 °F 30.01 in NNW 3.0 mph 5.0 mph 43% 0.00 in SCT
18:30 60.1 °F 37.5 °F 30.01 in NNW 3.0 mph 8.0 mph 43% 0.00 in SCT
18:45 59.9 °F 37.9 °F 30.02 in NNW 2.0 mph 6.0 mph 44% 0.00 in SCT
19:00 59.8 °F 37.8 °F 30.02 in NNW 3.0 mph 7.0 mph 44% 0.00 in SCT
19:15 58.6 °F 37.9 °F 30.02 in NNW 1.0 mph 6.0 mph 46% 0.00 in FEW
19:30 57.4 °F 37.9 °F 30.03 in Calm   4.0 mph 48% 0.00 in FEW
19:45 56.6 °F 37.6 °F 30.02 in North 1.0 mph 3.0 mph 49% 0.00 in FEW
20:15 53.7 °F 38.4 °F 30.04 in Calm   1.0 mph 56% 0.00 in FEW
20:30 53.2 °F 38.8 °F 30.05 in Calm   2.0 mph 58% 0.00 in FEW
20:45 52.8 °F 38.0 °F 30.05 in Calm   2.0 mph 57% 0.00 in FEW
21:00 52.1 °F 37.3 °F 30.06 in Calm   3.0 mph 57% 0.00 in FEW
21:15 51.2 °F 37.4 °F 30.06 in Calm   1.0 mph 59% 0.00 in CLR
21:30 50.8 °F 36.1 °F 30.07 in Calm   2.0 mph 57% 0.00 in CLR
21:45 50.3 °F 36.9 °F 30.08 in Calm   1.0 mph 60% 0.00 in CLR
22:00 49.2 °F 36.3 °F 30.08 in Calm   1.0 mph 61% 0.00 in CLR
22:15 48.6 °F 36.6 °F 30.08 in Calm   1.0 mph 63% 0.00 in SCT
22:30 48.2 °F 36.2 °F 30.08 in Calm     63% 0.00 in SCT
22:45 48.0 °F 36.0 °F 30.08 in Calm   3.0 mph 63% 0.00 in SCT
23:00 47.4 °F 36.2 °F 30.08 in Calm     65% 0.00 in SCT
23:15 46.9 °F 36.1 °F 30.08 in Calm   1.0 mph 66% 0.00 in SCT
23:30 46.4 °F 35.7 °F 30.08 in Calm   1.0 mph 66% 0.00 in SCT
23:45 45.9 °F 35.9 °F 30.07 in Calm     68% 0.00 in SCT
TarryTown NY Weather
Compliments of Weather Underground - 1.5 mb